Accueil
METAR-TAF:

METAR-TAF

Aéroports :

Tanegashima, Japon

latitude: 30-33N, longitude: 130-57E, altitude: 92 m

Observation

Le bulletin a été fait il y a 23 minutes, à 06:00 UTC
Vent 11 kt de est/sud-est, variant entre est et sud/sud-est
Température 28°C
Humidité 84%
Pression 1009 hPa
Visibilité 10 km ou plus
Quelques nuages à une hauteur de 800 ft
Nuages épars à une hauteur de 6000 ft
Nuages fragmentés

METAR: RJFG 250600Z 12011KT 090V150 9999 FEW008 SCT060 BKN/// 28/25 Q1009

Heure: 15:23 (06:23 UTC)


TAF: absent

Observations et prévisions météorologiques de plus de 4000 aéroports (messages METAR et TAF).

Les stations disponibles sont représentées par des disques jaunes et rouges sur la carte.

Passer la souris dessus pour voir le nom de la station.

Cliquer dessus pour voir les observations et prévisions météorologiques.

Pour changer de carte: cliquez sur les boutons verts avec une croix noire pour zoomer, sur le bouton vert avec un tiret pour effectuer un zoom arrière, ou sur les flèches vertes pour les cartes adjacentes.


METAR-TAF: